الصفحة الرئيسية
METAR-TAF:

METAR-TAF

مطار :

سايبان, جزر ماريانا, الولايات المتحدة

دائرة عرض: 15-07N, خط طول: 145-44E, ارتفاع: 66 متر

مراقبة الطقس الحالي

تاريخ ووقت الإصدار 1ساعة و 8 دقيقة قبل الساعة 17:54UTC
ريح 13 عقدة من الشرق
درجة الحرارة 26°درجة مئوية
الرطوبة 84%
ضغط 1013 hPa
الرؤية: 16.1 كم
غيوم قليلة على ارتفاع 2200 قدم
غيوم مفككة على ارتفاع 4300 قدم
ملبد بالغيوم على ارتفاع 5500 قدم
مطر خفيف

METAR: PGSN 081754Z 09013KT 10SM -RA FEW022 BKN043 OVC055 26/23 A2990 RMK AO2 RAB28 SLP145 P0000 60001 T02560233 10278 20256 56012

زمن: 05:02 (19:02 UTC)

توقعات

تاريخ ووقت الإصدار 1ساعة و 33 دقيقة قبل الساعة 17:29UTC
التوقعات صالحة من08 الساعة 18 UTC إلى 09 الساعة 18 UTC
ريح 17 عقدة من الشرق/الشمال الشرقي
الرؤية: 10 كم
غيوم متفرقة على ارتفاع 1800 قدم
غيوم مفككة على ارتفاع 10000 قدم
زخات في الجوار
مؤقت
من 08 الساعة 18 UTC إلى 08 الساعة 22 UTC
الرؤية: 8.0 كم
غيوم متفرقة على ارتفاع 1500 قدم
غيوم مفككة على ارتفاع 2200 قدم
زخات من الأمطار الخفيفة

TAF: PGSN 081729Z 0818/0918 07017KT P6SM VCSH SCT018 BKN100 TEMPO 0818/0822 5SM -SHRA SCT015 BKN022

أرصاد الطقس والتوقعات من أكثر من 4000 مطار (تقارير الطقس للمطار METAR والتنبؤ بالطقس بالمطارTAF).

المحطات المتاحة هي النقط الصفراء والحمراء على الخريطة.

حرك المؤشر فوق النقطة لمعرفة اسم المحطة.

ثم انقر لمعرفة أرصاد وتوقعات الطقس.

لتغيير الخارطة: اضغط على الأزرار الخضراء مع رمز الصليب الأسود للتكبير. على الزر الأخضر مع شرطة للتصغير، أو على الأسهم الخضراء للخرائط المجاورة.


METAR-TAF: